Time;durP1;ratioP1;P1;durP2;ratioP2;P2;SDS_P1;SDS_P2;PMS_P1;PMS_P2;Temp;Humidity;BMP_temperature;BMP_pressure;BME280_temperature;BME280_humidity;BME280_pressure;Samples;Min_cycle;Max_cycle;Signal;HPM_P1;HPM_P2
2021/01/02 00:02:21;;;;;;;1.17;0.40;;;5.90;99.90;;;;;;5003309;28;20073;-59
2021/01/02 00:05:06;;;;;;;1.70;0.20;;;5.90;99.90;;;;;;5002443;28;20114;-55
2021/01/02 00:08:09;;;;;;;1.15;0.20;;;5.90;99.90;;;;;;5007955;28;20077;-53
2021/01/02 00:10:45;;;;;;;0.98;0.20;;;5.90;99.90;;;;;;5006113;28;20045;-52
2021/01/02 00:13:25;;;;;;;1.20;0.30;;;5.90;99.90;;;;;;5004059;28;20506;-56
2021/01/02 00:15:57;;;;;;;0.45;0.20;;;5.90;99.90;;;;;;4989515;28;20038;-55
2021/01/02 00:18:46;;;;;;;2.25;0.30;;;5.90;99.90;;;;;;4990211;28;20048;-57
2021/01/02 00:21:16;;;;;;;0.75;0.10;;;5.90;99.90;;;;;;5008791;28;20072;-56
2021/01/02 00:24:03;;;;;;;0.50;0.20;;;5.90;99.90;;;;;;5009122;28;20034;-57
2021/01/02 00:26:44;;;;;;;2.65;0.20;;;5.90;99.90;;;;;;5005781;28;20038;-55
2021/01/02 00:29:21;;;;;;;2.28;0.20;;;5.80;99.90;;;;;;5008209;28;20021;-54
2021/01/02 00:32:04;;;;;;;2.38;0.30;;;5.80;99.90;;;;;;4992652;28;20045;-57
2021/01/02 00:35:05;;;;;;;0.90;0.20;;;5.90;99.90;;;;;;4995602;28;20437;-59
2021/01/02 00:37:42;;;;;;;1.35;0.30;;;5.90;99.90;;;;;;4999697;28;20128;-54
2021/01/02 00:40:19;;;;;;;0.70;0.20;;;5.90;99.90;;;;;;5008315;28;20081;-58
2021/01/02 00:42:46;;;;;;;0.98;0.20;;;5.80;99.90;;;;;;5007955;28;20041;-57
2021/01/02 00:45:15;;;;;;;1.40;0.20;;;5.80;99.90;;;;;;5008837;28;20042;-58
2021/01/02 00:47:42;;;;;;;0.40;0.10;;;5.80;99.90;;;;;;5007487;28;20040;-59
2021/01/02 00:50:12;;;;;;;0.50;0.17;;;6.00;99.90;;;;;;5007668;28;20038;-59
2021/01/02 00:52:44;;;;;;;1.48;0.30;;;6.00;99.90;;;;;;5007957;28;20413;-53
2021/01/02 00:55:25;;;;;;;2.70;0.20;;;6.00;99.90;;;;;;5008630;28;20034;-58
2021/01/02 00:58:04;;;;;;;0.75;0.20;;;6.00;99.90;;;;;;5007537;28;20076;-54
2021/01/02 01:00:37;;;;;;;0.40;0.10;;;6.00;99.90;;;;;;5005088;28;20378;-58
2021/01/02 01:03:10;;;;;;;0.93;0.20;;;6.00;99.90;;;;;;5007931;28;20109;-54
2021/01/02 01:05:45;;;;;;;1.15;0.20;;;6.00;99.90;;;;;;5003842;28;20045;-56
2021/01/02 01:08:15;;;;;;;1.50;0.10;;;6.00;99.90;;;;;;5005665;28;20038;-57
2021/01/02 01:10:42;;;;;;;3.63;0.20;;;6.00;99.90;;;;;;5012085;28;20037;-58
2021/01/02 01:13:24;;;;;;;1.08;0.10;;;6.10;99.90;;;;;;5012489;28;20026;-57
2021/01/02 01:15:51;;;;;;;1.13;0.10;;;6.10;99.90;;;;;;5012041;28;20164;-56
2021/01/02 01:18:16;;;;;;;1.27;0.10;;;6.00;99.90;;;;;;5012182;28;20033;-58
2021/01/02 01:20:58;;;;;;;0.17;0.08;;;6.00;99.90;;;;;;5012218;28;20521;-57
2021/01/02 01:23:31;;;;;;;1.08;0.10;;;6.10;99.90;;;;;;5006430;28;20044;-54
2021/01/02 01:26:20;;;;;;;0.68;0.20;;;6.10;99.90;;;;;;5011912;28;20493;-53
2021/01/02 01:28:49;;;;;;;2.05;0.30;;;6.10;99.90;;;;;;5011726;28;20092;-53
2021/01/02 01:31:18;;;;;;;1.13;0.10;;;6.20;99.90;;;;;;5011989;28;20408;-55
2021/01/02 01:33:49;;;;;;;1.90;0.10;;;6.20;99.90;;;;;;5012302;28;20129;-57
2021/01/02 01:36:17;;;;;;;1.35;0.10;;;6.00;99.90;;;;;;5012581;28;20506;-56
2021/01/02 01:38:44;;;;;;;0.50;0.10;;;6.00;99.90;;;;;;5012024;28;20549;-55
2021/01/02 01:41:16;;;;;;;1.75;0.10;;;5.90;99.90;;;;;;5012313;28;20084;-58
2021/01/02 01:44:10;;;;;;;2.58;0.10;;;5.80;99.90;;;;;;5012359;28;20153;-54
2021/01/02 01:47:11;;;;;;;2.20;0.10;;;5.70;99.90;;;;;;5012150;28;20045;-54
2021/01/02 01:49:55;;;;;;;0.45;0.10;;;5.70;99.90;;;;;;5011811;28;20030;-58
2021/01/02 01:52:48;;;;;;;0.55;0.00;;;5.70;99.90;;;;;;5011769;28;20057;-58
2021/01/02 01:55:19;;;;;;;0.98;0.10;;;5.70;99.90;;;;;;5011675;28;20034;-57
2021/01/02 01:57:49;;;;;;;1.30;0.10;;;5.60;99.90;;;;;;5011875;28;20042;-54
2021/01/02 02:00:16;;;;;;;0.45;0.00;;;5.70;99.90;;;;;;5011923;28;20066;-56
2021/01/02 02:02:45;;;;;;;0.52;0.03;;;5.70;99.90;;;;;;5011968;28;20061;-58
2021/01/02 02:05:12;;;;;;;0.20;0.00;;;5.80;99.90;;;;;;5026635;28;20037;-56
2021/01/02 02:07:45;;;;;;;0.35;0.00;;;5.90;99.90;;;;;;5011536;28;20065;-56
2021/01/02 02:10:14;;;;;;;1.80;0.10;;;5.90;99.90;;;;;;5011679;28;20030;-55
2021/01/02 02:12:52;;;;;;;1.95;0.00;;;5.90;99.90;;;;;;5011629;28;20025;-59
2021/01/02 02:15:20;;;;;;;1.75;0.20;;;5.90;99.90;;;;;;5011318;28;20494;-58
2021/01/02 02:17:48;;;;;;;1.45;0.00;;;5.90;99.90;;;;;;5011485;28;20109;-56
2021/01/02 02:20:19;;;;;;;0.65;0.00;;;5.90;99.90;;;;;;5010391;28;20053;-57
2021/01/02 02:22:45;;;;;;;0.20;0.00;;;6.00;99.90;;;;;;5011539;28;20417;-56
2021/01/02 02:25:11;;;;;;;1.45;0.00;;;6.10;99.90;;;;;;5011503;28;20418;-54
2021/01/02 02:27:43;;;;;;;1.65;0.00;;;6.30;99.90;;;;;;5011010;28;20033;-57
2021/01/02 02:30:14;;;;;;;1.08;0.05;;;6.20;99.90;;;;;;5011180;28;20493;-53
2021/01/02 02:32:47;;;;;;;1.48;0.00;;;6.20;99.90;;;;;;5010982;28;20049;-53
2021/01/02 02:35:21;;;;;;;0.20;0.00;;;6.10;99.90;;;;;;5011043;28;20029;-58
2021/01/02 02:37:52;;;;;;;0.10;0.00;;;6.00;99.90;;;;;;5010983;28;20072;-52
2021/01/02 02:43:02;;;;;;;0.22;0.00;;;6.00;99.90;;;;;;4960206;22;20093;-56
2021/01/02 02:45:32;;;;;;;1.55;0.10;;;5.90;99.90;;;;;;4972029;28;20104;-57
2021/01/02 02:48:02;;;;;;;0.77;0.00;;;5.90;99.90;;;;;;4986274;28;20109;-56
2021/01/02 02:50:28;;;;;;;0.13;0.00;;;5.90;99.90;;;;;;4972215;28;20031;-57
2021/01/02 02:53:06;;;;;;;1.85;0.00;;;6.00;99.90;;;;;;4971895;28;20066;-58
2021/01/02 02:55:38;;;;;;;0.20;0.00;;;6.10;99.90;;;;;;4971845;28;20077;-53
2021/01/02 02:58:04;;;;;;;0.88;0.10;;;6.10;99.90;;;;;;4971837;28;20035;-57
2021/01/02 03:00:31;;;;;;;1.08;0.10;;;6.10;99.90;;;;;;4972016;28;20046;-57
2021/01/02 03:02:57;;;;;;;4.05;0.20;;;6.20;99.90;;;;;;4971735;28;20035;-57
2021/01/02 03:05:22;;;;;;;1.60;0.20;;;6.30;99.90;;;;;;4971832;28;20035;-57
2021/01/02 03:07:49;;;;;;;4.05;0.40;;;6.30;99.90;;;;;;4971724;28;20378;-57
2021/01/02 03:10:18;;;;;;;4.80;0.60;;;6.30;99.90;;;;;;4971787;28;20550;-56
2021/01/02 03:12:52;;;;;;;2.58;0.63;;;6.30;99.90;;;;;;4971515;28;20054;-54
2021/01/02 03:15:19;;;;;;;2.67;0.65;;;6.30;99.90;;;;;;4971398;28;20046;-56
2021/01/02 03:17:49;;;;;;;2.65;0.50;;;6.30;99.90;;;;;;4971433;28;20038;-57
2021/01/02 03:20:17;;;;;;;3.20;0.40;;;6.40;99.90;;;;;;4971210;28;20038;-56
2021/01/02 03:22:45;;;;;;;6.00;0.20;;;6.50;99.90;;;;;;4971287;28;20212;-57
2021/01/02 03:25:13;;;;;;;4.85;0.20;;;6.40;99.90;;;;;;4971175;28;20519;-56
2021/01/02 03:27:39;;;;;;;1.05;0.10;;;6.40;99.90;;;;;;4971613;28;20035;-56
2021/01/02 03:30:08;;;;;;;0.63;0.10;;;6.30;99.90;;;;;;4971207;28;20065;-58
2021/01/02 03:32:35;;;;;;;1.85;0.10;;;6.40;99.90;;;;;;4971068;28;20041;-58
2021/01/02 03:35:01;;;;;;;0.93;0.10;;;6.50;99.90;;;;;;4971224;28;20522;-54
2021/01/02 03:37:27;;;;;;;0.70;0.10;;;6.60;99.90;;;;;;4970992;28;20039;-57
2021/01/02 03:39:52;;;;;;;0.30;0.10;;;6.50;99.90;;;;;;4970979;28;20037;-57
2021/01/02 03:42:18;;;;;;;0.75;0.10;;;6.40;99.90;;;;;;4970721;28;20046;-58
2021/01/02 03:44:44;;;;;;;0.40;0.08;;;6.30;99.90;;;;;;4971196;28;20461;-52
2021/01/02 03:47:10;;;;;;;1.95;0.20;;;6.30;99.90;;;;;;4970876;28;20395;-57
2021/01/02 03:49:37;;;;;;;0.52;0.10;;;6.30;99.90;;;;;;4970881;28;20026;-55
2021/01/02 03:52:06;;;;;;;0.65;0.08;;;6.30;99.90;;;;;;4970919;28;20038;-56
2021/01/02 03:54:34;;;;;;;1.00;0.00;;;6.30;99.90;;;;;;4971188;28;20356;-55
2021/01/02 03:56:59;;;;;;;0.57;0.10;;;6.20;99.90;;;;;;4970660;28;20030;-55
2021/01/02 03:59:25;;;;;;;0.40;0.10;;;6.20;99.90;;;;;;4970862;28;20039;-56
2021/01/02 04:02:00;;;;;;;0.38;0.05;;;6.10;99.90;;;;;;4970758;28;20459;-53
2021/01/02 04:04:27;;;;;;;1.27;0.10;;;6.00;99.90;;;;;;4970554;28;20038;-56
2021/01/02 04:06:53;;;;;;;0.40;0.00;;;5.90;99.90;;;;;;4970601;28;20035;-53
2021/01/02 04:09:22;;;;;;;0.10;0.00;;;5.90;99.90;;;;;;4970289;28;20035;-57
2021/01/02 04:11:49;;;;;;;2.78;0.08;;;6.00;99.90;;;;;;4970446;28;20027;-53
2021/01/02 04:14:15;;;;;;;0.20;0.00;;;6.00;99.90;;;;;;4970449;28;20126;-57
2021/01/02 04:16:42;;;;;;;0.40;0.00;;;6.00;99.90;;;;;;4970471;28;20034;-57
2021/01/02 04:19:09;;;;;;;0.30;0.00;;;6.00;99.90;;;;;;4970212;28;20549;-57
2021/01/02 04:21:35;;;;;;;0.10;0.00;;;6.00;99.90;;;;;;4970245;28;20035;-58
2021/01/02 04:24:02;;;;;;;0.90;0.10;;;5.90;99.90;;;;;;4970167;28;20491;-59
2021/01/02 04:26:28;;;;;;;1.60;0.10;;;5.90;99.90;;;;;;4970159;28;20027;-59
2021/01/02 04:28:55;;;;;;;0.40;0.10;;;5.80;99.90;;;;;;4970235;28;20030;-54
2021/01/02 04:31:30;;;;;;;0.20;0.00;;;5.90;99.90;;;;;;4970376;28;20434;-59
2021/01/02 04:33:56;;;;;;;1.35;0.00;;;6.10;99.90;;;;;;4970353;28;20058;-53
2021/01/02 04:36:22;;;;;;;0.88;0.00;;;6.30;99.90;;;;;;4970028;28;20117;-56
2021/01/02 04:38:48;;;;;;;0.32;0.00;;;6.40;99.90;;;;;;4970338;28;20030;-54
2021/01/02 04:41:17;;;;;;;0.95;0.10;;;6.40;99.90;;;;;;4970312;28;20070;-58
2021/01/02 04:43:47;;;;;;;0.40;0.10;;;6.40;99.90;;;;;;4969323;28;20602;-59
2021/01/02 04:46:14;;;;;;;0.63;0.20;;;6.30;99.90;;;;;;4970149;28;20027;-56
2021/01/02 04:48:41;;;;;;;0.38;0.10;;;6.30;99.90;;;;;;4970246;28;20078;-55
2021/01/02 04:51:08;;;;;;;0.10;0.00;;;6.30;99.90;;;;;;4969974;28;20031;-53
2021/01/02 04:53:34;;;;;;;0.25;0.00;;;6.40;99.90;;;;;;4970277;28;20086;-57
2021/01/02 04:56:04;;;;;;;0.00;0.00;;;6.40;99.90;;;;;;4970180;28;20039;-57
2021/01/02 04:58:32;;;;;;;0.00;0.00;;;6.40;99.90;;;;;;4970111;28;20114;-56
2021/01/02 05:00:59;;;;;;;0.20;0.00;;;6.40;99.90;;;;;;4969826;28;20035;-55
2021/01/02 05:03:24;;;;;;;0.63;0.00;;;6.30;99.90;;;;;;4969868;28;20490;-54
2021/01/02 05:05:51;;;;;;;0.00;0.00;;;6.20;99.90;;;;;;4970404;28;20090;-57
2021/01/02 05:08:17;;;;;;;2.67;0.10;;;6.10;99.90;;;;;;4969805;28;20047;-55
2021/01/02 05:10:59;;;;;;;0.32;0.00;;;6.10;99.90;;;;;;4970095;28;20057;-55
2021/01/02 05:13:30;;;;;;;0.70;0.10;;;6.00;99.90;;;;;;4969969;28;20097;-54
2021/01/02 05:16:13;;;;;;;0.38;0.10;;;6.00;99.90;;;;;;4969652;28;20035;-57
2021/01/02 05:18:54;;;;;;;0.20;0.00;;;6.10;99.90;;;;;;4969970;28;20057;-57
2021/01/02 05:21:20;;;;;;;1.45;0.10;;;6.10;99.90;;;;;;4970003;28;20042;-57
2021/01/02 05:24:13;;;;;;;2.00;0.10;;;6.10;99.90;;;;;;4969843;28;20114;-55
2021/01/02 05:26:46;;;;;;;0.25;0.00;;;6.10;99.90;;;;;;4969480;28;20051;-59
2021/01/02 05:29:17;;;;;;;0.65;0.10;;;6.10;99.90;;;;;;4969777;28;20027;-59
2021/01/02 05:31:45;;;;;;;1.85;0.00;;;6.20;99.90;;;;;;4969617;28;20047;-55
2021/01/02 05:34:12;;;;;;;0.20;0.00;;;6.20;99.90;;;;;;4969788;28;20023;-58
2021/01/02 05:36:40;;;;;;;0.08;0.00;;;6.10;99.90;;;;;;4969526;28;20494;-56
2021/01/02 05:39:08;;;;;;;0.10;0.00;;;6.20;99.90;;;;;;4969585;28;20113;-55
2021/01/02 05:41:49;;;;;;;0.15;0.00;;;6.40;99.90;;;;;;4969651;28;20039;-54
2021/01/02 05:44:15;;;;;;;0.40;0.00;;;6.30;99.90;;;;;;4969585;28;20085;-58
2021/01/02 05:46:46;;;;;;;0.28;0.00;;;6.40;99.90;;;;;;4969608;28;20034;-59
2021/01/02 05:49:30;;;;;;;0.00;0.00;;;6.40;99.90;;;;;;4969667;28;20023;-55
2021/01/02 05:52:01;;;;;;;0.55;0.00;;;6.40;99.90;;;;;;4969784;28;20122;-54
2021/01/02 05:54:29;;;;;;;1.20;0.00;;;6.40;99.90;;;;;;4970031;28;20035;-57
2021/01/02 05:57:00;;;;;;;0.05;0.00;;;6.30;99.90;;;;;;4973049;28;20031;-57
2021/01/02 05:59:33;;;;;;;0.10;0.00;;;6.30;99.90;;;;;;4972664;28;20031;-58
2021/01/02 06:02:17;;;;;;;0.25;0.05;;;6.30;99.90;;;;;;4972782;28;20078;-55
2021/01/02 06:05:13;;;;;;;0.20;0.00;;;6.20;99.90;;;;;;4973010;28;20042;-57
2021/01/02 06:07:40;;;;;;;0.65;0.00;;;6.00;99.90;;;;;;4972005;28;20062;-54
2021/01/02 06:10:09;;;;;;;0.20;0.00;;;6.00;99.90;;;;;;4972481;28;20030;-54
2021/01/02 06:12:40;;;;;;;0.35;0.00;;;6.00;99.90;;;;;;4972630;28;20035;-58
2021/01/02 06:15:11;;;;;;;1.33;0.10;;;5.90;99.90;;;;;;4972816;28;20181;-56
2021/01/02 06:17:39;;;;;;;0.50;0.00;;;5.90;99.90;;;;;;4972858;28;20428;-55
2021/01/02 06:20:13;;;;;;;0.93;0.57;;;5.80;99.90;;;;;;4972596;28;20039;-57
2021/01/02 06:22:43;;;;;;;1.50;0.30;;;5.80;99.90;;;;;;4972377;28;20027;-55
2021/01/02 06:25:11;;;;;;;1.75;0.08;;;5.70;99.90;;;;;;4972442;28;20035;-55
2021/01/02 06:27:41;;;;;;;0.90;0.10;;;5.70;99.90;;;;;;4972479;28;20038;-56
2021/01/02 06:30:08;;;;;;;0.28;0.10;;;5.80;99.90;;;;;;4972399;28;20513;-57
2021/01/02 06:32:34;;;;;;;2.10;0.10;;;5.80;99.90;;;;;;4972438;28;20043;-54
2021/01/02 06:35:16;;;;;;;1.88;0.35;;;5.80;99.90;;;;;;4972111;28;20058;-55
2021/01/02 06:37:48;;;;;;;3.40;0.93;;;5.80;99.90;;;;;;4972389;28;20026;-55
2021/01/02 06:40:20;;;;;;;4.57;0.93;;;5.80;99.90;;;;;;4972307;28;20344;-55
2021/01/02 06:42:58;;;;;;;2.65;0.30;;;5.90;99.90;;;;;;4971808;28;20133;-56
2021/01/02 06:45:35;;;;;;;2.38;0.73;;;5.80;99.90;;;;;;4972190;28;20549;-54
2021/01/02 06:48:13;;;;;;;4.97;0.60;;;5.90;99.90;;;;;;4971859;28;20039;-56
2021/01/02 06:50:49;;;;;;;0.65;0.20;;;5.90;99.90;;;;;;4971860;28;20038;-58
2021/01/02 06:53:18;;;;;;;2.83;0.30;;;5.90;99.90;;;;;;4971814;28;20117;-53
2021/01/02 06:55:44;;;;;;;2.85;0.55;;;5.90;99.90;;;;;;4971752;28;20057;-53
2021/01/02 06:58:17;;;;;;;3.08;0.60;;;5.90;99.90;;;;;;4971616;28;20054;-58
2021/01/02 07:00:43;;;;;;;2.65;0.30;;;5.90;99.90;;;;;;4971907;28;20411;-55
2021/01/02 07:03:47;;;;;;;3.85;0.98;;;6.00;99.90;;;;;;4971853;28;20050;-56
2021/01/02 07:06:18;;;;;;;1.17;0.30;;;6.00;99.90;;;;;;4971087;28;20565;-54
2021/01/02 07:08:55;;;;;;;0.82;0.20;;;6.10;99.90;;;;;;4971538;28;20435;-54
2021/01/02 07:11:34;;;;;;;0.50;0.20;;;6.10;99.90;;;;;;4971487;28;20031;-57
2021/01/02 07:14:15;;;;;;;0.90;0.20;;;6.10;99.90;;;;;;4971445;28;20053;-56
2021/01/02 07:16:54;;;;;;;1.40;0.20;;;6.10;99.90;;;;;;4971406;28;20038;-56
2021/01/02 07:22:20;;;;;;;0.50;0.10;;;6.20;99.90;;;;;;4971633;28;20491;-56
2021/01/02 07:24:57;;;;;;;0.60;0.20;;;6.20;99.90;;;;;;4971214;28;20133;-56
2021/01/02 07:27:30;;;;;;;1.50;0.20;;;6.30;99.90;;;;;;4971124;28;20150;-54
2021/01/02 07:30:02;;;;;;;0.75;0.05;;;6.30;99.90;;;;;;4971501;28;20034;-52
2021/01/02 07:32:33;;;;;;;0.20;0.00;;;6.40;99.90;;;;;;4971064;28;20042;-54
2021/01/02 07:35:01;;;;;;;0.50;0.10;;;6.60;99.90;;;;;;4971001;28;20034;-58
2021/01/02 07:37:32;;;;;;;7.22;2.97;;;6.70;99.90;;;;;;4970861;28;20031;-53
2021/01/02 07:40:08;;;;;;;4.15;1.58;;;6.60;99.90;;;;;;4970956;28;20046;-55
2021/01/02 07:42:39;;;;;;;5.82;2.22;;;6.40;99.90;;;;;;4970606;28;20055;-54
2021/01/02 07:45:09;;;;;;;3.53;0.80;;;6.30;99.90;;;;;;4970869;28;20497;-58
2021/01/02 07:47:50;;;;;;;2.72;1.30;;;6.30;99.90;;;;;;4971184;28;20043;-57
2021/01/02 07:50:17;;;;;;;3.10;0.98;;;6.20;99.90;;;;;;4970626;28;20034;-56
2021/01/02 07:53:00;;;;;;;1.95;1.02;;;6.20;99.90;;;;;;4970709;28;20088;-54
2021/01/02 07:55:31;;;;;;;3.28;0.80;;;6.20;99.90;;;;;;4970896;28;20054;-56
2021/01/02 07:57:57;;;;;;;3.42;1.02;;;6.20;99.90;;;;;;4970633;28;20042;-56
2021/01/02 08:00:24;;;;;;;1.48;0.70;;;6.20;99.90;;;;;;4970488;28;20043;-57
2021/01/02 08:02:50;;;;;;;3.72;1.13;;;6.20;99.90;;;;;;4969215;28;20081;-53
2021/01/02 08:05:20;;;;;;;5.00;1.67;;;6.10;99.90;;;;;;4970898;28;20205;-57
2021/01/02 08:08:00;;;;;;;3.03;1.35;;;6.10;99.90;;;;;;4970945;28;20046;-53
2021/01/02 08:10:30;;;;;;;3.50;1.30;;;6.10;99.90;;;;;;4970098;28;20058;-54
2021/01/02 08:13:00;;;;;;;4.93;2.20;;;6.10;99.90;;;;;;4969985;28;20102;-55
2021/01/02 08:15:37;;;;;;;5.63;2.95;;;6.10;99.90;;;;;;4970633;28;20039;-57
2021/01/02 08:18:08;;;;;;;6.32;3.67;;;6.10;99.90;;;;;;4969641;28;20523;-54
2021/01/02 08:20:35;;;;;;;11.15;5.40;;;6.10;99.90;;;;;;4970518;28;20068;-53
2021/01/02 08:23:08;;;;;;;12.35;6.68;;;6.10;99.90;;;;;;4970573;28;20045;-54
2021/01/02 08:25:34;;;;;;;13.52;6.55;;;6.10;99.90;;;;;;4970359;28;20490;-54
2021/01/02 08:28:01;;;;;;;11.68;7.35;;;6.10;99.90;;;;;;4970406;28;20026;-54
2021/01/02 08:30:26;;;;;;;12.15;6.40;;;6.10;99.90;;;;;;4970328;28;20038;-59
2021/01/02 08:32:54;;;;;;;12.25;5.72;;;6.10;99.90;;;;;;4970233;28;20398;-57
2021/01/02 08:35:37;;;;;;;9.82;5.90;;;6.20;99.90;;;;;;4970053;28;20039;-55
2021/01/02 08:38:05;;;;;;;9.35;5.00;;;6.20;99.90;;;;;;4970123;28;20038;-57
2021/01/02 08:40:37;;;;;;;10.60;5.95;;;6.20;99.90;;;;;;4969840;28;20129;-58
2021/01/02 08:43:03;;;;;;;12.38;5.10;;;6.30;99.90;;;;;;4969877;28;20050;-53
2021/01/02 08:45:33;;;;;;;5.10;3.17;;;6.30;99.90;;;;;;4969906;28;20037;-57
2021/01/02 08:48:12;;;;;;;9.48;4.50;;;6.40;99.90;;;;;;4970118;28;20035;-56
2021/01/02 08:50:41;;;;;;;9.10;4.80;;;6.40;99.90;;;;;;4969800;28;20376;-56
2021/01/02 08:53:26;;;;;;;9.70;3.67;;;6.40;99.90;;;;;;4970134;28;20439;-57
2021/01/02 08:55:52;;;;;;;9.43;4.07;;;6.40;99.90;;;;;;4970364;28;20110;-57
2021/01/02 08:58:34;;;;;;;8.75;4.53;;;6.50;99.90;;;;;;4970093;28;20531;-55
2021/01/02 09:01:00;;;;;;;10.85;5.85;;;6.50;99.90;;;;;;4969493;28;20070;-58
2021/01/02 09:03:26;;;;;;;12.10;6.45;;;6.50;99.90;;;;;;4969797;28;20384;-57
2021/01/02 09:05:52;;;;;;;12.85;5.00;;;6.50;99.90;;;;;;4969854;28;20128;-56
2021/01/02 09:08:19;;;;;;;5.50;2.35;;;6.50;99.90;;;;;;4969795;28;20075;-54
2021/01/02 09:10:46;;;;;;;9.52;4.07;;;6.80;99.90;;;;;;4969874;28;20469;-54
2021/01/02 09:13:20;;;;;;;10.55;4.63;;;6.90;99.90;;;;;;4969757;28;20031;-55
2021/01/02 09:15:55;;;;;;;12.57;5.85;;;6.90;99.90;;;;;;4969650;28;20470;-56
2021/01/02 09:18:32;;;;;;;12.98;7.43;;;6.90;99.90;;;;;;4969936;28;20173;-56
2021/01/02 09:21:19;;;;;;;17.35;7.93;;;6.80;99.90;;;;;;4969636;28;20150;-55
2021/01/02 09:23:45;;;;;;;13.20;7.32;;;6.90;99.90;;;;;;4969397;28;20499;-57
2021/01/02 09:26:21;;;;;;;13.77;6.60;;;6.90;99.90;;;;;;4969847;28;20067;-52
2021/01/02 09:28:47;;;;;;;18.48;9.82;;;6.90;99.90;;;;;;4970705;28;20056;-58
2021/01/02 09:31:14;;;;;;;19.73;8.82;;;6.90;99.90;;;;;;4973499;28;20121;-58
2021/01/02 09:33:40;;;;;;;19.52;9.63;;;6.90;99.90;;;;;;4973326;28;20069;-57
2021/01/02 09:36:06;;;;;;;19.25;9.60;;;7.00;99.90;;;;;;4971082;28;20034;-59
2021/01/02 09:38:32;;;;;;;18.67;9.65;;;7.00;99.90;;;;;;4972353;28;20442;-55
2021/01/02 09:40:58;;;;;;;13.52;7.68;;;7.00;99.90;;;;;;4973061;28;20038;-55
2021/01/02 09:43:25;;;;;;;12.07;7.40;;;7.00;99.90;;;;;;4995496;23;20446;-53
2021/01/02 09:45:50;;;;;;;17.45;8.23;;;7.00;99.90;;;;;;4992987;28;20042;-55
2021/01/02 09:48:17;;;;;;;25.30;13.93;;;7.10;99.90;;;;;;4992466;28;20178;-57
2021/01/02 09:50:44;;;;;;;10.20;6.70;;;7.10;99.90;;;;;;4992466;28;20058;-53
2021/01/02 09:53:10;;;;;;;4.25;1.00;;;7.10;99.90;;;;;;4992153;28;20762;-58
2021/01/02 09:55:37;;;;;;;4.47;1.25;;;7.10;99.90;;;;;;4992516;28;20493;-53
2021/01/02 09:58:03;;;;;;;4.72;1.20;;;7.30;99.90;;;;;;4992381;28;20066;-55
2021/01/02 10:00:29;;;;;;;3.22;1.60;;;7.50;99.90;;;;;;4992098;28;20089;-53
2021/01/02 10:02:55;;;;;;;3.55;0.98;;;7.60;99.90;;;;;;4992066;28;20042;-51
2021/01/02 10:05:23;;;;;;;3.10;0.90;;;7.70;99.90;;;;;;4992138;28;20444;-55
2021/01/02 10:07:50;;;;;;;2.30;0.75;;;7.70;99.90;;;;;;4985217;28;20034;-57
2021/01/02 10:10:17;;;;;;;3.60;0.63;;;7.70;99.90;;;;;;4987415;28;20109;-57
2021/01/02 10:12:44;;;;;;;1.63;0.30;;;7.70;99.90;;;;;;4989724;28;20030;-55
2021/01/02 10:15:11;;;;;;;3.17;0.30;;;8.00;99.90;;;;;;5003116;28;20057;-55
2021/01/02 10:17:37;;;;;;;2.03;0.22;;;8.30;99.90;;;;;;5011550;28;20493;-54
2021/01/02 10:20:04;;;;;;;1.95;0.20;;;8.30;99.90;;;;;;4993570;28;20035;-55
2021/01/02 10:22:30;;;;;;;1.60;0.30;;;8.40;99.90;;;;;;4991642;28;20034;-59
2021/01/02 10:24:55;;;;;;;1.48;0.20;;;8.40;99.90;;;;;;4991847;28;20517;-55
2021/01/02 10:27:23;;;;;;;1.10;0.17;;;8.50;99.90;;;;;;4988054;28;20308;-53
2021/01/02 10:29:52;;;;;;;0.60;0.20;;;8.50;99.90;;;;;;4980821;28;20069;-56
2021/01/02 10:32:20;;;;;;;0.73;0.20;;;8.70;99.90;;;;;;4999901;28;20488;-52
2021/01/02 10:34:46;;;;;;;1.02;0.22;;;8.80;99.90;;;;;;4991057;28;20065;-52
2021/01/02 10:37:13;;;;;;;1.20;0.30;;;8.80;99.90;;;;;;4990906;28;20529;-55
2021/01/02 10:39:40;;;;;;;0.65;0.20;;;9.00;99.90;;;;;;4989564;28;20046;-55
2021/01/02 10:42:06;;;;;;;0.55;0.10;;;9.00;99.90;;;;;;4990586;28;20502;-56
2021/01/02 10:44:32;;;;;;;1.60;0.20;;;9.10;99.90;;;;;;4988707;28;20101;-58
2021/01/02 10:46:59;;;;;;;2.05;0.30;;;9.20;99.90;;;;;;4984630;28;20038;-53
2021/01/02 10:49:26;;;;;;;2.10;0.30;;;9.20;99.90;;;;;;4985352;28;20038;-53
2021/01/02 10:51:52;;;;;;;1.08;0.20;;;9.10;99.90;;;;;;4990460;28;20128;-57
2021/01/02 10:54:20;;;;;;;1.00;0.32;;;9.10;99.90;;;;;;4991194;28;20093;-58
2021/01/02 10:56:51;;;;;;;1.38;0.40;;;9.00;99.90;;;;;;4983891;28;20027;-58
2021/01/02 10:59:22;;;;;;;2.03;0.17;;;8.90;99.90;;;;;;4971763;28;20463;-58
2021/01/02 11:01:50;;;;;;;1.10;0.10;;;9.00;99.90;;;;;;4971359;28;20042;-57
2021/01/02 11:04:19;;;;;;;1.05;0.10;;;9.00;99.90;;;;;;4971880;28;20087;-57
2021/01/02 11:06:49;;;;;;;1.80;0.10;;;9.10;99.90;;;;;;4971901;28;20228;-55
2021/01/02 11:09:14;;;;;;;1.02;0.10;;;9.00;99.90;;;;;;4981166;28;20050;-55
2021/01/02 11:11:42;;;;;;;2.20;0.17;;;9.00;99.90;;;;;;4986171;28;20442;-56
2021/01/02 11:14:10;;;;;;;1.25;0.20;;;9.00;99.90;;;;;;4981416;28;20030;-59
2021/01/02 11:16:38;;;;;;;4.25;0.40;;;9.10;99.90;;;;;;4990523;28;20434;-54
2021/01/02 11:19:11;;;;;;;2.20;0.15;;;9.20;99.90;;;;;;4992706;28;20034;-55
2021/01/02 11:21:38;;;;;;;0.73;0.10;;;9.40;99.90;;;;;;4990067;28;20046;-53
2021/01/02 11:24:04;;;;;;;1.98;0.20;;;9.50;99.90;;;;;;4990098;28;20467;-54
2021/01/02 11:26:30;;;;;;;3.20;0.30;;;9.40;99.90;;;;;;4990862;28;20026;-57
2021/01/02 11:28:56;;;;;;;0.95;0.20;;;9.50;99.90;;;;;;4990407;28;20030;-54
2021/01/02 11:31:33;;;;;;;1.30;0.20;;;9.60;99.90;;;;;;4990348;28;20038;-53
2021/01/02 11:34:00;;;;;;;2.13;0.20;;;9.50;99.90;;;;;;4990661;28;20038;-58
2021/01/02 11:36:26;;;;;;;1.88;0.20;;;9.40;99.90;;;;;;4990348;28;20121;-52
2021/01/02 11:38:52;;;;;;;0.88;0.20;;;9.40;99.90;;;;;;4989498;28;20121;-56
2021/01/02 11:41:20;;;;;;;3.47;0.30;;;9.40;99.90;;;;;;4987713;28;20173;-51
2021/01/02 11:43:46;;;;;;;3.17;0.50;;;9.40;99.90;;;;;;4979423;28;20037;-58
2021/01/02 11:46:13;;;;;;;1.88;0.30;;;9.40;99.90;;;;;;4989368;28;20403;-53
2021/01/02 11:48:41;;;;;;;1.58;0.30;;;9.30;99.90;;;;;;5007432;28;20423;-55
2021/01/02 11:51:13;;;;;;;1.67;0.20;;;9.30;99.90;;;;;;5002319;28;20034;-57
2021/01/02 11:53:39;;;;;;;0.70;0.20;;;9.20;99.90;;;;;;4988632;28;20540;-56
2021/01/02 11:56:05;;;;;;;1.70;0.20;;;9.30;99.90;;;;;;4990059;28;20038;-54
2021/01/02 11:58:32;;;;;;;1.42;0.20;;;9.20;99.90;;;;;;4988556;28;20038;-56
2021/01/02 12:00:58;;;;;;;0.95;0.10;;;9.20;99.90;;;;;;4975659;28;20038;-55
2021/01/02 12:03:24;;;;;;;0.55;0.15;;;9.10;99.90;;;;;;4982124;28;20113;-52
2021/01/02 12:05:50;;;;;;;1.60;0.22;;;9.00;99.90;;;;;;4989877;28;20042;-52
2021/01/02 12:08:15;;;;;;;3.92;1.00;;;9.00;99.90;;;;;;4974915;28;20038;-58
2021/01/02 12:10:44;;;;;;;1.75;0.40;;;9.00;99.90;;;;;;4998481;28;20026;-56
2021/01/02 12:13:09;;;;;;;3.97;0.30;;;9.00;99.90;;;;;;5009338;28;20042;-56
2021/01/02 12:15:35;;;;;;;1.10;0.40;;;8.90;99.90;;;;;;5009542;28;20126;-58
2021/01/02 12:18:01;;;;;;;1.80;0.60;;;8.90;99.90;;;;;;5009478;28;20116;-54
2021/01/02 12:20:27;;;;;;;1.58;0.40;;;8.90;99.90;;;;;;4993563;28;20479;-56
2021/01/02 12:22:53;;;;;;;0.93;0.25;;;8.90;99.90;;;;;;4989370;28;20061;-55
2021/01/02 12:25:19;;;;;;;1.73;0.40;;;8.90;99.90;;;;;;4989856;28;20030;-56
2021/01/02 12:27:44;;;;;;;3.75;0.50;;;8.80;99.90;;;;;;4989444;28;20517;-58
2021/01/02 12:30:11;;;;;;;4.28;0.70;;;8.80;99.90;;;;;;4989300;28;20033;-60
2021/01/02 12:32:36;;;;;;;2.45;0.65;;;8.60;99.90;;;;;;4987124;28;20034;-57
2021/01/02 12:35:02;;;;;;;2.97;0.50;;;8.60;99.90;;;;;;4979581;28;20324;-58
2021/01/02 12:37:28;;;;;;;1.58;0.30;;;8.70;99.90;;;;;;4987855;28;20519;-58
2021/01/02 12:39:54;;;;;;;1.55;0.40;;;8.60;99.90;;;;;;4987493;28;20038;-57
2021/01/02 12:42:20;;;;;;;2.67;0.75;;;8.50;99.90;;;;;;4989275;28;20414;-58
2021/01/02 12:44:49;;;;;;;3.70;0.50;;;8.60;99.90;;;;;;4989258;28;20200;-52
2021/01/02 12:47:17;;;;;;;2.00;0.20;;;8.50;99.90;;;;;;4988787;28;20108;-60
2021/01/02 12:49:44;;;;;;;1.63;0.20;;;8.30;99.90;;;;;;4984734;28;20022;-56
2021/01/02 12:52:11;;;;;;;1.25;0.30;;;8.30;99.90;;;;;;4989161;28;20153;-55
2021/01/02 12:54:37;;;;;;;2.72;0.40;;;8.30;99.90;;;;;;4995334;28;20487;-57
2021/01/02 12:57:04;;;;;;;1.55;0.20;;;8.40;99.90;;;;;;4987764;28;20089;-58
2021/01/02 12:59:32;;;;;;;1.60;0.40;;;8.50;99.90;;;;;;4977452;28;21990;-56
2021/01/02 13:01:59;;;;;;;3.20;0.93;;;8.40;99.90;;;;;;4986109;28;20411;-59
2021/01/02 13:04:26;;;;;;;0.60;0.20;;;8.30;99.90;;;;;;4991432;28;20114;-59
2021/01/02 13:06:54;;;;;;;2.05;0.10;;;8.30;99.90;;;;;;4985044;28;20403;-54
2021/01/02 13:09:21;;;;;;;0.60;0.15;;;8.20;99.90;;;;;;4974570;28;20027;-61
2021/01/02 13:11:55;;;;;;;0.30;0.10;;;8.00;99.90;;;;;;4990750;28;20027;-53
2021/01/02 13:14:27;;;;;;;5.78;2.67;;;8.10;99.90;;;;;;4973833;28;20045;-54
2021/01/02 13:16:56;;;;;;;14.88;7.63;;;8.10;99.90;;;;;;4992824;28;20455;-59
2021/01/02 13:19:23;;;;;;;52.90;23.52;;;8.20;99.90;;;;;;4992449;28;20828;-58